sensor_id;sensor_type;location;lat;lon;timestamp;P1;durP1;ratioP1;P2;durP2;ratioP2
57643;SDS011;43474;46.510;6.686;2023-02-19T00:01:11;16.85;;;15.40;;
57643;SDS011;43474;46.510;6.686;2023-02-19T00:03:46;17.15;;;15.68;;
57643;SDS011;43474;46.510;6.686;2023-02-19T00:06:14;19.17;;;17.63;;
57643;SDS011;43474;46.510;6.686;2023-02-19T00:08:40;20.67;;;18.85;;
57643;SDS011;43474;46.510;6.686;2023-02-19T00:11:27;23.15;;;21.05;;
57643;SDS011;43474;46.510;6.686;2023-02-19T00:13:54;24.42;;;22.23;;
57643;SDS011;43474;46.510;6.686;2023-02-19T00:16:24;20.38;;;18.60;;
57643;SDS011;43474;46.510;6.686;2023-02-19T00:18:51;19.75;;;17.98;;
57643;SDS011;43474;46.510;6.686;2023-02-19T00:21:17;21.48;;;18.05;;
57643;SDS011;43474;46.510;6.686;2023-02-19T00:23:47;21.80;;;19.70;;
57643;SDS011;43474;46.510;6.686;2023-02-19T00:26:20;21.33;;;19.58;;
57643;SDS011;43474;46.510;6.686;2023-02-19T00:28:46;18.48;;;16.95;;
57643;SDS011;43474;46.510;6.686;2023-02-19T00:31:18;20.25;;;18.70;;
57643;SDS011;43474;46.510;6.686;2023-02-19T00:33:48;23.60;;;21.85;;
57643;SDS011;43474;46.510;6.686;2023-02-19T00:36:16;28.58;;;26.63;;
57643;SDS011;43474;46.510;6.686;2023-02-19T00:38:43;42.40;;;39.88;;
57643;SDS011;43474;46.510;6.686;2023-02-19T00:41:10;62.97;;;59.25;;
57643;SDS011;43474;46.510;6.686;2023-02-19T00:46:17;148.18;;;140.82;;
57643;SDS011;43474;46.510;6.686;2023-02-19T00:48:54;149.10;;;141.90;;
57643;SDS011;43474;46.510;6.686;2023-02-19T00:51:21;165.98;;;158.18;;
57643;SDS011;43474;46.510;6.686;2023-02-19T00:53:48;154.05;;;146.77;;
57643;SDS011;43474;46.510;6.686;2023-02-19T00:56:14;158.90;;;151.02;;
57643;SDS011;43474;46.510;6.686;2023-02-19T00:58:40;198.15;;;188.68;;
57643;SDS011;43474;46.510;6.686;2023-02-19T01:01:06;223.93;;;213.30;;
57643;SDS011;43474;46.510;6.686;2023-02-19T01:03:33;234.73;;;223.32;;
57643;SDS011;43474;46.510;6.686;2023-02-19T01:05:59;238.35;;;226.80;;
57643;SDS011;43474;46.510;6.686;2023-02-19T01:08:26;180.13;;;171.60;;
57643;SDS011;43474;46.510;6.686;2023-02-19T01:10:51;183.05;;;174.20;;
57643;SDS011;43474;46.510;6.686;2023-02-19T01:13:18;256.88;;;244.30;;
57643;SDS011;43474;46.510;6.686;2023-02-19T01:15:43;311.40;;;296.33;;
57643;SDS011;43474;46.510;6.686;2023-02-19T01:18:09;298.30;;;283.75;;
57643;SDS011;43474;46.510;6.686;2023-02-19T01:20:37;330.67;;;314.73;;
57643;SDS011;43474;46.510;6.686;2023-02-19T01:23:05;365.55;;;347.63;;
57643;SDS011;43474;46.510;6.686;2023-02-19T01:25:30;369.70;;;351.20;;
57643;SDS011;43474;46.510;6.686;2023-02-19T01:27:56;378.52;;;359.63;;
57643;SDS011;43474;46.510;6.686;2023-02-19T01:30:21;411.17;;;390.33;;
57643;SDS011;43474;46.510;6.686;2023-02-19T01:32:47;433.88;;;411.85;;
57643;SDS011;43474;46.510;6.686;2023-02-19T01:35:12;451.27;;;428.08;;
57643;SDS011;43474;46.510;6.686;2023-02-19T01:37:38;459.75;;;436.00;;
57643;SDS011;43474;46.510;6.686;2023-02-19T01:40:03;440.80;;;417.92;;
57643;SDS011;43474;46.510;6.686;2023-02-19T01:42:29;444.02;;;421.05;;
57643;SDS011;43474;46.510;6.686;2023-02-19T01:45:15;482.83;;;457.85;;
57643;SDS011;43474;46.510;6.686;2023-02-19T01:48:10;474.00;;;449.33;;
57643;SDS011;43474;46.510;6.686;2023-02-19T01:51:10;483.58;;;458.15;;
57643;SDS011;43474;46.510;6.686;2023-02-19T01:56:07;425.65;;;403.90;;
57643;SDS011;43474;46.510;6.686;2023-02-19T01:58:34;474.02;;;449.48;;
57643;SDS011;43474;46.510;6.686;2023-02-19T02:01:02;485.10;;;459.58;;
57643;SDS011;43474;46.510;6.686;2023-02-19T02:03:30;533.80;;;505.05;;
57643;SDS011;43474;46.510;6.686;2023-02-19T02:06:00;554.47;;;524.53;;
57643;SDS011;43474;46.510;6.686;2023-02-19T02:08:30;549.72;;;520.35;;
57643;SDS011;43474;46.510;6.686;2023-02-19T02:11:16;524.47;;;496.48;;
57643;SDS011;43474;46.510;6.686;2023-02-19T02:13:44;515.35;;;487.80;;
57643;SDS011;43474;46.510;6.686;2023-02-19T02:18:41;473.77;;;449.38;;
57643;SDS011;43474;46.510;6.686;2023-02-19T02:33:03;469.15;;;444.90;;
57643;SDS011;43474;46.510;6.686;2023-02-19T02:35:52;480.00;;;454.92;;
57643;SDS011;43474;46.510;6.686;2023-02-19T02:38:23;549.08;;;519.20;;
57643;SDS011;43474;46.510;6.686;2023-02-19T02:40:53;607.45;;;573.05;;
57643;SDS011;43474;46.510;6.686;2023-02-19T02:43:20;625.05;;;589.55;;
57643;SDS011;43474;46.510;6.686;2023-02-19T02:45:45;622.08;;;586.67;;
57643;SDS011;43474;46.510;6.686;2023-02-19T02:48:16;616.45;;;581.53;;
57643;SDS011;43474;46.510;6.686;2023-02-19T02:51:35;614.47;;;580.15;;
57643;SDS011;43474;46.510;6.686;2023-02-19T02:54:09;606.40;;;572.38;;
57643;SDS011;43474;46.510;6.686;2023-02-19T02:56:58;611.63;;;577.75;;
57643;SDS011;43474;46.510;6.686;2023-02-19T02:59:25;611.50;;;577.10;;
57643;SDS011;43474;46.510;6.686;2023-02-19T03:01:57;605.58;;;571.33;;
57643;SDS011;43474;46.510;6.686;2023-02-19T03:04:52;599.75;;;566.35;;
57643;SDS011;43474;46.510;6.686;2023-02-19T03:13:10;599.50;;;566.28;;
57643;SDS011;43474;46.510;6.686;2023-02-19T03:15:59;591.40;;;558.75;;
57643;SDS011;43474;46.510;6.686;2023-02-19T03:18:50;595.30;;;562.28;;
57643;SDS011;43474;46.510;6.686;2023-02-19T03:21:37;587.08;;;554.72;;
57643;SDS011;43474;46.510;6.686;2023-02-19T03:24:05;587.20;;;554.80;;
57643;SDS011;43474;46.510;6.686;2023-02-19T03:26:53;581.33;;;549.58;;
57643;SDS011;43474;46.510;6.686;2023-02-19T03:29:22;574.40;;;542.88;;
57643;SDS011;43474;46.510;6.686;2023-02-19T03:31:55;566.88;;;536.17;;
57643;SDS011;43474;46.510;6.686;2023-02-19T03:34:25;557.22;;;527.08;;
57643;SDS011;43474;46.510;6.686;2023-02-19T03:37:00;561.47;;;530.72;;
57643;SDS011;43474;46.510;6.686;2023-02-19T03:39:33;574.50;;;542.90;;
57643;SDS011;43474;46.510;6.686;2023-02-19T03:42:20;587.33;;;555.10;;
57643;SDS011;43474;46.510;6.686;2023-02-19T03:44:56;582.08;;;549.83;;
57643;SDS011;43474;46.510;6.686;2023-02-19T03:47:33;581.42;;;549.22;;
57643;SDS011;43474;46.510;6.686;2023-02-19T03:55:47;567.20;;;536.20;;
57643;SDS011;43474;46.510;6.686;2023-02-19T04:01:26;547.67;;;518.08;;
57643;SDS011;43474;46.510;6.686;2023-02-19T04:03:58;547.95;;;518.45;;
57643;SDS011;43474;46.510;6.686;2023-02-19T04:06:29;552.53;;;522.50;;
57643;SDS011;43474;46.510;6.686;2023-02-19T04:08:58;568.50;;;537.15;;
57643;SDS011;43474;46.510;6.686;2023-02-19T04:11:26;579.95;;;547.60;;
57643;SDS011;43474;46.510;6.686;2023-02-19T04:13:55;561.50;;;530.70;;
57643;SDS011;43474;46.510;6.686;2023-02-19T04:16:27;540.28;;;510.75;;
57643;SDS011;43474;46.510;6.686;2023-02-19T04:19:02;521.33;;;493.48;;
57643;SDS011;43474;46.510;6.686;2023-02-19T04:21:32;510.30;;;483.15;;
57643;SDS011;43474;46.510;6.686;2023-02-19T04:24:01;516.92;;;489.65;;
57643;SDS011;43474;46.510;6.686;2023-02-19T04:26:33;512.20;;;484.98;;
57643;SDS011;43474;46.510;6.686;2023-02-19T04:29:00;503.73;;;477.02;;
57643;SDS011;43474;46.510;6.686;2023-02-19T04:31:26;497.95;;;471.63;;
57643;SDS011;43474;46.510;6.686;2023-02-19T04:33:54;502.52;;;476.02;;
57643;SDS011;43474;46.510;6.686;2023-02-19T04:36:19;493.25;;;467.27;;
57643;SDS011;43474;46.510;6.686;2023-02-19T04:38:45;486.45;;;461.25;;
57643;SDS011;43474;46.510;6.686;2023-02-19T04:41:10;474.80;;;450.10;;
57643;SDS011;43474;46.510;6.686;2023-02-19T04:43:36;462.30;;;438.30;;
57643;SDS011;43474;46.510;6.686;2023-02-19T04:46:01;446.80;;;424.10;;
57643;SDS011;43474;46.510;6.686;2023-02-19T04:48:28;441.25;;;418.40;;
57643;SDS011;43474;46.510;6.686;2023-02-19T04:50:54;434.55;;;412.42;;
57643;SDS011;43474;46.510;6.686;2023-02-19T04:53:19;418.75;;;397.60;;
57643;SDS011;43474;46.510;6.686;2023-02-19T04:55:45;401.15;;;381.10;;
57643;SDS011;43474;46.510;6.686;2023-02-19T04:58:12;401.15;;;381.13;;
57643;SDS011;43474;46.510;6.686;2023-02-19T05:00:38;403.85;;;383.65;;
57643;SDS011;43474;46.510;6.686;2023-02-19T05:03:03;413.60;;;393.00;;
57643;SDS011;43474;46.510;6.686;2023-02-19T05:05:29;411.48;;;390.75;;
57643;SDS011;43474;46.510;6.686;2023-02-19T05:07:55;409.50;;;388.75;;
57643;SDS011;43474;46.510;6.686;2023-02-19T05:10:21;396.95;;;377.13;;
57643;SDS011;43474;46.510;6.686;2023-02-19T05:12:46;399.35;;;379.55;;
57643;SDS011;43474;46.510;6.686;2023-02-19T05:15:12;389.70;;;370.40;;
57643;SDS011;43474;46.510;6.686;2023-02-19T05:17:37;374.17;;;355.85;;
57643;SDS011;43474;46.510;6.686;2023-02-19T05:20:03;355.52;;;338.30;;
57643;SDS011;43474;46.510;6.686;2023-02-19T05:22:29;360.50;;;342.95;;
57643;SDS011;43474;46.510;6.686;2023-02-19T05:24:54;356.80;;;339.60;;
57643;SDS011;43474;46.510;6.686;2023-02-19T05:27:20;346.05;;;329.50;;
57643;SDS011;43474;46.510;6.686;2023-02-19T05:29:46;326.35;;;310.95;;
57643;SDS011;43474;46.510;6.686;2023-02-19T05:32:11;317.75;;;302.88;;
57643;SDS011;43474;46.510;6.686;2023-02-19T05:34:37;302.42;;;288.42;;
57643;SDS011;43474;46.510;6.686;2023-02-19T05:37:02;296.48;;;282.52;;
57643;SDS011;43474;46.510;6.686;2023-02-19T05:39:28;291.90;;;278.35;;
57643;SDS011;43474;46.510;6.686;2023-02-19T05:41:53;306.42;;;291.95;;
57643;SDS011;43474;46.510;6.686;2023-02-19T05:44:19;319.40;;;304.42;;
57643;SDS011;43474;46.510;6.686;2023-02-19T05:46:44;324.48;;;309.08;;
57643;SDS011;43474;46.510;6.686;2023-02-19T05:49:10;350.85;;;333.90;;
57643;SDS011;43474;46.510;6.686;2023-02-19T05:51:36;363.63;;;346.10;;
57643;SDS011;43474;46.510;6.686;2023-02-19T05:54:01;363.50;;;345.65;;
57643;SDS011;43474;46.510;6.686;2023-02-19T05:56:37;372.65;;;354.75;;
57643;SDS011;43474;46.510;6.686;2023-02-19T05:59:26;402.35;;;381.98;;
57643;SDS011;43474;46.510;6.686;2023-02-19T06:01:51;420.02;;;398.77;;
57643;SDS011;43474;46.510;6.686;2023-02-19T06:04:18;432.60;;;410.60;;
57643;SDS011;43474;46.510;6.686;2023-02-19T06:06:44;446.05;;;422.98;;
57643;SDS011;43474;46.510;6.686;2023-02-19T06:09:10;446.13;;;423.27;;
57643;SDS011;43474;46.510;6.686;2023-02-19T06:11:36;460.58;;;436.88;;
57643;SDS011;43474;46.510;6.686;2023-02-19T06:14:03;454.60;;;431.35;;
57643;SDS011;43474;46.510;6.686;2023-02-19T06:16:29;452.02;;;428.35;;
57643;SDS011;43474;46.510;6.686;2023-02-19T06:18:56;441.88;;;418.90;;
57643;SDS011;43474;46.510;6.686;2023-02-19T06:21:22;426.52;;;404.80;;
57643;SDS011;43474;46.510;6.686;2023-02-19T06:23:48;421.10;;;399.52;;
57643;SDS011;43474;46.510;6.686;2023-02-19T06:26:18;419.35;;;397.98;;
57643;SDS011;43474;46.510;6.686;2023-02-19T06:28:47;407.45;;;386.88;;
57643;SDS011;43474;46.510;6.686;2023-02-19T06:31:14;393.38;;;373.80;;
57643;SDS011;43474;46.510;6.686;2023-02-19T06:33:40;383.02;;;363.90;;
57643;SDS011;43474;46.510;6.686;2023-02-19T06:36:07;372.45;;;353.90;;
57643;SDS011;43474;46.510;6.686;2023-02-19T06:38:36;368.15;;;349.90;;
57643;SDS011;43474;46.510;6.686;2023-02-19T06:41:02;372.35;;;353.58;;
57643;SDS011;43474;46.510;6.686;2023-02-19T06:43:30;368.15;;;349.92;;
57643;SDS011;43474;46.510;6.686;2023-02-19T06:45:57;364.92;;;347.00;;
57643;SDS011;43474;46.510;6.686;2023-02-19T06:48:28;360.38;;;342.55;;
57643;SDS011;43474;46.510;6.686;2023-02-19T06:50:54;361.52;;;343.85;;
57643;SDS011;43474;46.510;6.686;2023-02-19T06:53:20;357.35;;;339.83;;
57643;SDS011;43474;46.510;6.686;2023-02-19T06:55:55;356.45;;;338.98;;
57643;SDS011;43474;46.510;6.686;2023-02-19T06:58:26;352.38;;;335.17;;
57643;SDS011;43474;46.510;6.686;2023-02-19T07:00:51;342.77;;;326.23;;
57643;SDS011;43474;46.510;6.686;2023-02-19T07:03:17;334.25;;;318.15;;
57643;SDS011;43474;46.510;6.686;2023-02-19T07:05:43;330.10;;;314.25;;
57643;SDS011;43474;46.510;6.686;2023-02-19T07:08:09;322.58;;;307.08;;
57643;SDS011;43474;46.510;6.686;2023-02-19T07:10:34;320.65;;;305.27;;
57643;SDS011;43474;46.510;6.686;2023-02-19T07:13:00;318.67;;;303.48;;
57643;SDS011;43474;46.510;6.686;2023-02-19T07:15:25;314.83;;;299.90;;
57643;SDS011;43474;46.510;6.686;2023-02-19T07:17:51;302.80;;;288.60;;
57643;SDS011;43474;46.510;6.686;2023-02-19T07:20:16;310.15;;;295.50;;
57643;SDS011;43474;46.510;6.686;2023-02-19T07:22:42;312.58;;;297.77;;
57643;SDS011;43474;46.510;6.686;2023-02-19T07:25:07;330.45;;;314.30;;
57643;SDS011;43474;46.510;6.686;2023-02-19T07:27:33;330.45;;;314.25;;
57643;SDS011;43474;46.510;6.686;2023-02-19T07:29:59;335.25;;;319.23;;
57643;SDS011;43474;46.510;6.686;2023-02-19T07:32:25;341.98;;;325.33;;
57643;SDS011;43474;46.510;6.686;2023-02-19T07:34:50;347.88;;;331.02;;
57643;SDS011;43474;46.510;6.686;2023-02-19T07:37:16;338.35;;;321.58;;
57643;SDS011;43474;46.510;6.686;2023-02-19T07:39:41;336.58;;;320.40;;
57643;SDS011;43474;46.510;6.686;2023-02-19T07:42:07;334.02;;;318.02;;
57643;SDS011;43474;46.510;6.686;2023-02-19T07:44:32;326.90;;;311.23;;
57643;SDS011;43474;46.510;6.686;2023-02-19T07:46:58;325.00;;;309.33;;
57643;SDS011;43474;46.510;6.686;2023-02-19T07:49:23;324.10;;;308.55;;
57643;SDS011;43474;46.510;6.686;2023-02-19T07:51:49;318.83;;;303.63;;
57643;SDS011;43474;46.510;6.686;2023-02-19T07:54:14;309.30;;;294.50;;
57643;SDS011;43474;46.510;6.686;2023-02-19T07:56:40;299.23;;;285.17;;
57643;SDS011;43474;46.510;6.686;2023-02-19T07:59:06;288.55;;;275.10;;
57643;SDS011;43474;46.510;6.686;2023-02-19T08:01:31;287.40;;;273.90;;
57643;SDS011;43474;46.510;6.686;2023-02-19T08:04:15;287.38;;;273.88;;
57643;SDS011;43474;46.510;6.686;2023-02-19T08:06:41;263.27;;;250.93;;
57643;SDS011;43474;46.510;6.686;2023-02-19T08:09:07;259.63;;;247.55;;
57643;SDS011;43474;46.510;6.686;2023-02-19T08:11:34;252.77;;;241.02;;
57643;SDS011;43474;46.510;6.686;2023-02-19T08:14:18;253.38;;;241.60;;
57643;SDS011;43474;46.510;6.686;2023-02-19T08:16:47;252.93;;;240.90;;
57643;SDS011;43474;46.510;6.686;2023-02-19T08:19:16;238.38;;;227.07;;
57643;SDS011;43474;46.510;6.686;2023-02-19T08:21:42;240.68;;;229.52;;
57643;SDS011;43474;46.510;6.686;2023-02-19T08:24:07;230.43;;;219.77;;
57643;SDS011;43474;46.510;6.686;2023-02-19T08:26:33;223.93;;;213.68;;
57643;SDS011;43474;46.510;6.686;2023-02-19T08:28:59;229.70;;;218.88;;
57643;SDS011;43474;46.510;6.686;2023-02-19T08:31:25;211.18;;;201.40;;
57643;SDS011;43474;46.510;6.686;2023-02-19T08:33:51;161.13;;;153.50;;
57643;SDS011;43474;46.510;6.686;2023-02-19T08:36:17;146.05;;;139.00;;
57643;SDS011;43474;46.510;6.686;2023-02-19T08:38:43;117.45;;;111.60;;
57643;SDS011;43474;46.510;6.686;2023-02-19T08:41:10;117.72;;;111.97;;
57643;SDS011;43474;46.510;6.686;2023-02-19T08:43:36;111.57;;;105.78;;
57643;SDS011;43474;46.510;6.686;2023-02-19T08:46:03;102.55;;;97.50;;
57643;SDS011;43474;46.510;6.686;2023-02-19T08:48:31;103.93;;;98.78;;
57643;SDS011;43474;46.510;6.686;2023-02-19T08:50:58;99.97;;;95.07;;
57643;SDS011;43474;46.510;6.686;2023-02-19T08:53:28;84.05;;;79.68;;
57643;SDS011;43474;46.510;6.686;2023-02-19T08:55:55;83.47;;;79.28;;
57643;SDS011;43474;46.510;6.686;2023-02-19T08:58:20;79.78;;;75.90;;
57643;SDS011;43474;46.510;6.686;2023-02-19T09:00:47;67.95;;;64.47;;
57643;SDS011;43474;46.510;6.686;2023-02-19T09:03:13;75.70;;;71.78;;
57643;SDS011;43474;46.510;6.686;2023-02-19T09:05:39;82.53;;;78.32;;
57643;SDS011;43474;46.510;6.686;2023-02-19T09:08:04;67.15;;;63.78;;
57643;SDS011;43474;46.510;6.686;2023-02-19T09:10:30;69.15;;;65.63;;
57643;SDS011;43474;46.510;6.686;2023-02-19T09:12:56;66.47;;;63.17;;
57643;SDS011;43474;46.510;6.686;2023-02-19T09:15:21;69.70;;;65.85;;
57643;SDS011;43474;46.510;6.686;2023-02-19T09:17:50;54.55;;;51.50;;
57643;SDS011;43474;46.510;6.686;2023-02-19T09:20:17;40.90;;;38.78;;
57643;SDS011;43474;46.510;6.686;2023-02-19T09:22:43;40.25;;;37.90;;
57643;SDS011;43474;46.510;6.686;2023-02-19T09:25:08;38.85;;;36.70;;
57643;SDS011;43474;46.510;6.686;2023-02-19T09:27:34;38.83;;;36.65;;
57643;SDS011;43474;46.510;6.686;2023-02-19T09:29:59;41.63;;;39.28;;
57643;SDS011;43474;46.510;6.686;2023-02-19T09:32:25;46.08;;;43.40;;
57643;SDS011;43474;46.510;6.686;2023-02-19T09:34:51;43.88;;;41.33;;
57643;SDS011;43474;46.510;6.686;2023-02-19T09:37:16;48.15;;;45.63;;
57643;SDS011;43474;46.510;6.686;2023-02-19T09:39:42;50.58;;;47.63;;
57643;SDS011;43474;46.510;6.686;2023-02-19T09:44:44;47.80;;;45.25;;
57643;SDS011;43474;46.510;6.686;2023-02-19T09:47:22;51.42;;;48.65;;
57643;SDS011;43474;46.510;6.686;2023-02-19T09:49:52;56.90;;;53.78;;
57643;SDS011;43474;46.510;6.686;2023-02-19T09:52:31;52.83;;;50.22;;
57643;SDS011;43474;46.510;6.686;2023-02-19T09:57:40;47.33;;;44.83;;
57643;SDS011;43474;46.510;6.686;2023-02-19T10:02:36;36.67;;;34.38;;
57643;SDS011;43474;46.510;6.686;2023-02-19T10:05:08;28.50;;;26.75;;
57643;SDS011;43474;46.510;6.686;2023-02-19T10:07:38;28.65;;;26.92;;
57643;SDS011;43474;46.510;6.686;2023-02-19T10:12:39;24.73;;;23.33;;
57643;SDS011;43474;46.510;6.686;2023-02-19T10:15:13;26.55;;;24.92;;
57643;SDS011;43474;46.510;6.686;2023-02-19T10:17:42;24.55;;;23.08;;
57643;SDS011;43474;46.510;6.686;2023-02-19T10:20:13;21.95;;;20.23;;
57643;SDS011;43474;46.510;6.686;2023-02-19T10:25:05;24.60;;;23.15;;
57643;SDS011;43474;46.510;6.686;2023-02-19T10:27:31;22.70;;;21.05;;
57643;SDS011;43474;46.510;6.686;2023-02-19T10:29:57;22.13;;;20.67;;
57643;SDS011;43474;46.510;6.686;2023-02-19T10:32:24;19.80;;;17.88;;
57643;SDS011;43474;46.510;6.686;2023-02-19T10:37:45;13.75;;;12.65;;
57643;SDS011;43474;46.510;6.686;2023-02-19T10:40:17;12.10;;;11.00;;
57643;SDS011;43474;46.510;6.686;2023-02-19T10:42:48;11.93;;;10.93;;
57643;SDS011;43474;46.510;6.686;2023-02-19T10:47:59;11.65;;;10.65;;
57643;SDS011;43474;46.510;6.686;2023-02-19T10:55:25;13.10;;;11.82;;
57643;SDS011;43474;46.510;6.686;2023-02-19T10:57:55;11.25;;;10.25;;
57643;SDS011;43474;46.510;6.686;2023-02-19T11:00:23;12.30;;;11.27;;
57643;SDS011;43474;46.510;6.686;2023-02-19T11:06:01;12.20;;;10.90;;
57643;SDS011;43474;46.510;6.686;2023-02-19T11:08:28;11.43;;;10.52;;
57643;SDS011;43474;46.510;6.686;2023-02-19T11:10:58;10.98;;;10.00;;
57643;SDS011;43474;46.510;6.686;2023-02-19T11:13:28;11.18;;;10.18;;
57643;SDS011;43474;46.510;6.686;2023-02-19T11:15:56;11.50;;;10.50;;
57643;SDS011;43474;46.510;6.686;2023-02-19T11:18:28;13.30;;;12.35;;
57643;SDS011;43474;46.510;6.686;2023-02-19T11:21:05;11.23;;;10.23;;
57643;SDS011;43474;46.510;6.686;2023-02-19T11:23:36;12.82;;;11.88;;
57643;SDS011;43474;46.510;6.686;2023-02-19T11:26:18;11.75;;;10.98;;
57643;SDS011;43474;46.510;6.686;2023-02-19T11:28:53;12.68;;;11.77;;
57643;SDS011;43474;46.510;6.686;2023-02-19T11:31:22;14.07;;;13.13;;
57643;SDS011;43474;46.510;6.686;2023-02-19T11:34:01;13.43;;;12.52;;
57643;SDS011;43474;46.510;6.686;2023-02-19T11:36:39;11.70;;;10.80;;
57643;SDS011;43474;46.510;6.686;2023-02-19T11:39:18;13.00;;;12.00;;
57643;SDS011;43474;46.510;6.686;2023-02-19T11:50:24;11.27;;;10.27;;
57643;SDS011;43474;46.510;6.686;2023-02-19T11:58:40;12.90;;;12.00;;
57643;SDS011;43474;46.510;6.686;2023-02-19T12:07:12;12.32;;;11.13;;
57643;SDS011;43474;46.510;6.686;2023-02-19T12:09:59;10.85;;;9.95;;
57643;SDS011;43474;46.510;6.686;2023-02-19T12:12:41;12.10;;;10.63;;
57643;SDS011;43474;46.510;6.686;2023-02-19T12:15:51;12.13;;;11.07;;
57643;SDS011;43474;46.510;6.686;2023-02-19T12:21:13;12.20;;;11.00;;
57643;SDS011;43474;46.510;6.686;2023-02-19T12:43:45;11.38;;;10.38;;
57643;SDS011;43474;46.510;6.686;2023-02-19T12:46:51;12.13;;;11.00;;
57643;SDS011;43474;46.510;6.686;2023-02-19T12:49:14;11.85;;;10.77;;
57643;SDS011;43474;46.510;6.686;2023-02-19T12:51:48;11.20;;;10.20;;
57643;SDS011;43474;46.510;6.686;2023-02-19T12:54:27;10.10;;;9.25;;
57643;SDS011;43474;46.510;6.686;2023-02-19T12:56:59;10.40;;;9.60;;
57643;SDS011;43474;46.510;6.686;2023-02-19T13:04:41;13.10;;;12.43;;
57643;SDS011;43474;46.510;6.686;2023-02-19T13:09:46;12.45;;;11.65;;
57643;SDS011;43474;46.510;6.686;2023-02-19T13:12:24;15.38;;;14.38;;
57643;SDS011;43474;46.510;6.686;2023-02-19T13:14:54;14.65;;;13.77;;
57643;SDS011;43474;46.510;6.686;2023-02-19T13:17:25;15.23;;;14.32;;
57643;SDS011;43474;46.510;6.686;2023-02-19T13:20:24;15.35;;;14.35;;
57643;SDS011;43474;46.510;6.686;2023-02-19T13:26:28;15.00;;;14.00;;
57643;SDS011;43474;46.510;6.686;2023-02-19T13:35:08;16.08;;;15.00;;
57643;SDS011;43474;46.510;6.686;2023-02-19T13:37:24;12.65;;;11.75;;
57643;SDS011;43474;46.510;6.686;2023-02-19T13:39:52;12.85;;;11.85;;
57643;SDS011;43474;46.510;6.686;2023-02-19T13:42:23;13.23;;;11.93;;
57643;SDS011;43474;46.510;6.686;2023-02-19T13:44:55;14.25;;;13.00;;
57643;SDS011;43474;46.510;6.686;2023-02-19T13:50:16;15.57;;;14.48;;
57643;SDS011;43474;46.510;6.686;2023-02-19T13:52:44;15.27;;;14.27;;
57643;SDS011;43474;46.510;6.686;2023-02-19T14:00:57;14.75;;;13.88;;
57643;SDS011;43474;46.510;6.686;2023-02-19T14:03:30;16.67;;;15.57;;
57643;SDS011;43474;46.510;6.686;2023-02-19T14:06:11;18.20;;;16.70;;
57643;SDS011;43474;46.510;6.686;2023-02-19T14:08:45;18.52;;;17.27;;
57643;SDS011;43474;46.510;6.686;2023-02-19T14:14:33;16.20;;;14.80;;
57643;SDS011;43474;46.510;6.686;2023-02-19T14:17:01;14.70;;;13.50;;
57643;SDS011;43474;46.510;6.686;2023-02-19T14:34:05;18.90;;;17.75;;
57643;SDS011;43474;46.510;6.686;2023-02-19T14:36:51;19.80;;;18.45;;
57643;SDS011;43474;46.510;6.686;2023-02-19T14:39:21;20.75;;;19.65;;
57643;SDS011;43474;46.510;6.686;2023-02-19T14:41:59;18.77;;;17.58;;
57643;SDS011;43474;46.510;6.686;2023-02-19T14:44:30;16.73;;;15.68;;
57643;SDS011;43474;46.510;6.686;2023-02-19T14:47:05;15.50;;;14.40;;
57643;SDS011;43474;46.510;6.686;2023-02-19T14:52:33;15.75;;;14.77;;
57643;SDS011;43474;46.510;6.686;2023-02-19T14:55:08;12.57;;;11.70;;
57643;SDS011;43474;46.510;6.686;2023-02-19T14:57:44;11.75;;;10.95;;
57643;SDS011;43474;46.510;6.686;2023-02-19T15:02:46;10.57;;;9.88;;
57643;SDS011;43474;46.510;6.686;2023-02-19T15:05:14;11.00;;;10.13;;
57643;SDS011;43474;46.510;6.686;2023-02-19T15:07:41;10.45;;;9.75;;
57643;SDS011;43474;46.510;6.686;2023-02-19T15:10:07;10.52;;;9.73;;
57643;SDS011;43474;46.510;6.686;2023-02-19T15:12:39;10.05;;;9.35;;
57643;SDS011;43474;46.510;6.686;2023-02-19T15:15:17;10.68;;;9.98;;
57643;SDS011;43474;46.510;6.686;2023-02-19T15:17:48;9.85;;;9.05;;
57643;SDS011;43474;46.510;6.686;2023-02-19T15:20:24;10.68;;;9.93;;
57643;SDS011;43474;46.510;6.686;2023-02-19T15:22:52;9.88;;;9.18;;
57643;SDS011;43474;46.510;6.686;2023-02-19T15:25:21;11.80;;;10.82;;
57643;SDS011;43474;46.510;6.686;2023-02-19T15:27:49;11.35;;;10.55;;
57643;SDS011;43474;46.510;6.686;2023-02-19T15:30:25;11.20;;;10.60;;
57643;SDS011;43474;46.510;6.686;2023-02-19T15:32:57;10.13;;;9.55;;
57643;SDS011;43474;46.510;6.686;2023-02-19T15:35:26;12.02;;;11.13;;
57643;SDS011;43474;46.510;6.686;2023-02-19T15:37:54;12.85;;;11.60;;
57643;SDS011;43474;46.510;6.686;2023-02-19T15:40:22;11.88;;;11.18;;
57643;SDS011;43474;46.510;6.686;2023-02-19T15:42:51;12.10;;;11.43;;
57643;SDS011;43474;46.510;6.686;2023-02-19T15:45:21;12.55;;;11.75;;
57643;SDS011;43474;46.510;6.686;2023-02-19T15:48:12;12.45;;;11.75;;
57643;SDS011;43474;46.510;6.686;2023-02-19T15:50:46;11.73;;;11.05;;
57643;SDS011;43474;46.510;6.686;2023-02-19T15:53:17;12.25;;;11.65;;
57643;SDS011;43474;46.510;6.686;2023-02-19T15:56:07;12.18;;;11.52;;
57643;SDS011;43474;46.510;6.686;2023-02-19T15:58:50;13.95;;;13.25;;
57643;SDS011;43474;46.510;6.686;2023-02-19T16:01:36;11.30;;;10.60;;
57643;SDS011;43474;46.510;6.686;2023-02-19T16:04:11;12.25;;;11.52;;
57643;SDS011;43474;46.510;6.686;2023-02-19T16:06:52;12.10;;;11.45;;
57643;SDS011;43474;46.510;6.686;2023-02-19T16:09:39;11.80;;;11.20;;
57643;SDS011;43474;46.510;6.686;2023-02-19T16:12:25;12.30;;;11.70;;
57643;SDS011;43474;46.510;6.686;2023-02-19T16:14:51;12.00;;;11.35;;
57643;SDS011;43474;46.510;6.686;2023-02-19T16:17:18;11.40;;;10.88;;
57643;SDS011;43474;46.510;6.686;2023-02-19T16:19:50;10.23;;;9.73;;
57643;SDS011;43474;46.510;6.686;2023-02-19T16:22:27;8.35;;;8.05;;
57643;SDS011;43474;46.510;6.686;2023-02-19T16:24:57;7.68;;;7.38;;
57643;SDS011;43474;46.510;6.686;2023-02-19T16:27:29;6.13;;;5.82;;
57643;SDS011;43474;46.510;6.686;2023-02-19T16:30:03;5.97;;;5.68;;
57643;SDS011;43474;46.510;6.686;2023-02-19T16:35:44;5.72;;;4.57;;
57643;SDS011;43474;46.510;6.686;2023-02-19T16:38:15;32.97;;;31.42;;
57643;SDS011;43474;46.510;6.686;2023-02-19T16:45:40;7.57;;;7.28;;
57643;SDS011;43474;46.510;6.686;2023-02-19T16:48:09;9.20;;;8.70;;
57643;SDS011;43474;46.510;6.686;2023-02-19T16:50:37;8.43;;;8.13;;
57643;SDS011;43474;46.510;6.686;2023-02-19T16:53:05;30.15;;;28.75;;
57643;SDS011;43474;46.510;6.686;2023-02-19T16:55:32;23.60;;;22.63;;
57643;SDS011;43474;46.510;6.686;2023-02-19T16:57:59;20.75;;;19.92;;
57643;SDS011;43474;46.510;6.686;2023-02-19T17:00:26;49.15;;;47.00;;
57643;SDS011;43474;46.510;6.686;2023-02-19T17:02:54;17.85;;;17.08;;
57643;SDS011;43474;46.510;6.686;2023-02-19T17:05:23;28.10;;;26.90;;
57643;SDS011;43474;46.510;6.686;2023-02-19T17:07:51;41.70;;;39.78;;